sensor_id;sensor_type;location;lat;lon;timestamp;temperature;humidity
60309;DHT22;50313;52.894;6.492;2023-06-19T00:01:18;21.60;80.40
60309;DHT22;50313;52.894;6.492;2023-06-19T00:04:07;21.60;80.20
60309;DHT22;50313;52.894;6.492;2023-06-19T00:07:05;21.50;80.00
60309;DHT22;50313;52.894;6.492;2023-06-19T00:10:20;21.60;79.30
60309;DHT22;50313;52.894;6.492;2023-06-19T00:16:51;21.60;78.80
60309;DHT22;50313;52.894;6.492;2023-06-19T00:19:44;21.70;78.50
60309;DHT22;50313;52.894;6.492;2023-06-19T00:23:01;21.60;78.60
60309;DHT22;50313;52.894;6.492;2023-06-19T00:26:21;21.60;78.70
60309;DHT22;50313;52.894;6.492;2023-06-19T00:29:18;21.50;78.50
60309;DHT22;50313;52.894;6.492;2023-06-19T00:36:06;21.50;77.90
60309;DHT22;50313;52.894;6.492;2023-06-19T00:39:05;21.50;77.60
60309;DHT22;50313;52.894;6.492;2023-06-19T00:42:24;21.60;78.00
60309;DHT22;50313;52.894;6.492;2023-06-19T00:45:18;21.60;77.00
60309;DHT22;50313;52.894;6.492;2023-06-19T00:51:53;21.60;76.60
60309;DHT22;50313;52.894;6.492;2023-06-19T00:55:12;21.60;76.50
60309;DHT22;50313;52.894;6.492;2023-06-19T00:57:58;21.60;76.40
60309;DHT22;50313;52.894;6.492;2023-06-19T01:00:53;21.50;76.40
60309;DHT22;50313;52.894;6.492;2023-06-19T01:04:13;21.50;76.50
60309;DHT22;50313;52.894;6.492;2023-06-19T01:20:35;21.50;75.90
60309;DHT22;50313;52.894;6.492;2023-06-19T01:26:15;21.60;75.40
60309;DHT22;50313;52.894;6.492;2023-06-19T01:33:15;21.50;75.20
60309;DHT22;50313;52.894;6.492;2023-06-19T01:36:03;21.50;74.80
60309;DHT22;50313;52.894;6.492;2023-06-19T01:48:40;21.60;74.60
60309;DHT22;50313;52.894;6.492;2023-06-19T01:54:19;21.70;74.20
60309;DHT22;50313;52.894;6.492;2023-06-19T01:57:20;21.80;73.70
60309;DHT22;50313;52.894;6.492;2023-06-19T02:00:23;21.80;74.60
60309;DHT22;50313;52.894;6.492;2023-06-19T02:03:22;21.80;74.50
60309;DHT22;50313;52.894;6.492;2023-06-19T02:06:17;21.80;75.10
60309;DHT22;50313;52.894;6.492;2023-06-19T02:08:52;21.70;75.50
60309;DHT22;50313;52.894;6.492;2023-06-19T02:11:21;21.60;75.60
60309;DHT22;50313;52.894;6.492;2023-06-19T02:14:14;21.60;76.00
60309;DHT22;50313;52.894;6.492;2023-06-19T02:16:53;21.60;76.30
60309;DHT22;50313;52.894;6.492;2023-06-19T02:19:35;21.60;76.30
60309;DHT22;50313;52.894;6.492;2023-06-19T02:22:08;21.50;77.20
60309;DHT22;50313;52.894;6.492;2023-06-19T02:24:37;21.50;77.50
60309;DHT22;50313;52.894;6.492;2023-06-19T02:27:13;21.50;77.70
60309;DHT22;50313;52.894;6.492;2023-06-19T02:29:41;21.50;77.80
60309;DHT22;50313;52.894;6.492;2023-06-19T02:32:18;21.50;77.80
60309;DHT22;50313;52.894;6.492;2023-06-19T02:34:46;21.50;78.30
60309;DHT22;50313;52.894;6.492;2023-06-19T02:37:22;21.50;78.90
60309;DHT22;50313;52.894;6.492;2023-06-19T02:39:55;21.40;79.60
60309;DHT22;50313;52.894;6.492;2023-06-19T02:42:43;21.40;79.60
60309;DHT22;50313;52.894;6.492;2023-06-19T02:45:36;21.40;80.20
60309;DHT22;50313;52.894;6.492;2023-06-19T02:48:13;21.50;80.60
60309;DHT22;50313;52.894;6.492;2023-06-19T02:50:40;21.60;80.70
60309;DHT22;50313;52.894;6.492;2023-06-19T02:53:17;21.50;81.40
60309;DHT22;50313;52.894;6.492;2023-06-19T02:56:13;21.50;81.30
60309;DHT22;50313;52.894;6.492;2023-06-19T02:58:39;21.50;82.40
60309;DHT22;50313;52.894;6.492;2023-06-19T03:01:45;21.50;82.30
60309;DHT22;50313;52.894;6.492;2023-06-19T03:04:56;21.50;82.40
60309;DHT22;50313;52.894;6.492;2023-06-19T03:07:36;21.50;82.80
60309;DHT22;50313;52.894;6.492;2023-06-19T03:10:15;21.50;83.40
60309;DHT22;50313;52.894;6.492;2023-06-19T03:13:14;21.50;83.70
60309;DHT22;50313;52.894;6.492;2023-06-19T03:19:25;21.40;84.90
60309;DHT22;50313;52.894;6.492;2023-06-19T03:40:25;21.50;88.80
60309;DHT22;50313;52.894;6.492;2023-06-19T03:43:14;21.40;90.00
60309;DHT22;50313;52.894;6.492;2023-06-19T03:52:50;21.20;91.90
60309;DHT22;50313;52.894;6.492;2023-06-19T04:02:09;21.00;93.10
60309;DHT22;50313;52.894;6.492;2023-06-19T04:04:53;21.00;93.40
60309;DHT22;50313;52.894;6.492;2023-06-19T04:08:06;20.90;93.80
60309;DHT22;50313;52.894;6.492;2023-06-19T04:20:57;20.70;95.80
60309;DHT22;50313;52.894;6.492;2023-06-19T04:24:01;20.60;96.10
60309;DHT22;50313;52.894;6.492;2023-06-19T04:26:58;20.60;96.70
60309;DHT22;50313;52.894;6.492;2023-06-19T04:30:14;20.50;97.20
60309;DHT22;50313;52.894;6.492;2023-06-19T04:47:51;20.50;99.60
60309;DHT22;50313;52.894;6.492;2023-06-19T04:53:47;20.40;99.90
60309;DHT22;50313;52.894;6.492;2023-06-19T04:56:18;20.40;99.90
60309;DHT22;50313;52.894;6.492;2023-06-19T04:58:46;20.40;99.90
60309;DHT22;50313;52.894;6.492;2023-06-19T05:05:20;20.40;99.90
60309;DHT22;50313;52.894;6.492;2023-06-19T05:08:01;20.40;99.90
60309;DHT22;50313;52.894;6.492;2023-06-19T05:10:43;20.40;99.90
60309;DHT22;50313;52.894;6.492;2023-06-19T05:21:09;20.50;99.90
60309;DHT22;50313;52.894;6.492;2023-06-19T05:24:01;20.70;99.90
60309;DHT22;50313;52.894;6.492;2023-06-19T05:34:02;20.80;99.90
60309;DHT22;50313;52.894;6.492;2023-06-19T05:55:42;20.90;99.90
60309;DHT22;50313;52.894;6.492;2023-06-19T05:59:14;21.00;99.90
60309;DHT22;50313;52.894;6.492;2023-06-19T06:01:45;21.10;99.90
60309;DHT22;50313;52.894;6.492;2023-06-19T06:04:34;21.10;99.90
60309;DHT22;50313;52.894;6.492;2023-06-19T06:07:23;21.10;99.90
60309;DHT22;50313;52.894;6.492;2023-06-19T06:10:06;21.00;99.90
60309;DHT22;50313;52.894;6.492;2023-06-19T06:13:46;21.00;99.90
60309;DHT22;50313;52.894;6.492;2023-06-19T06:19:57;21.00;99.90
60309;DHT22;50313;52.894;6.492;2023-06-19T06:23:06;20.90;99.90
60309;DHT22;50313;52.894;6.492;2023-06-19T06:47:28;20.60;99.90
60309;DHT22;50313;52.894;6.492;2023-06-19T06:50:23;20.60;99.90
60309;DHT22;50313;52.894;6.492;2023-06-19T06:53:46;20.60;99.90
60309;DHT22;50313;52.894;6.492;2023-06-19T06:56:42;20.50;99.90
60309;DHT22;50313;52.894;6.492;2023-06-19T07:02:36;20.60;99.90
60309;DHT22;50313;52.894;6.492;2023-06-19T07:05:25;20.60;99.90
60309;DHT22;50313;52.894;6.492;2023-06-19T07:11:29;20.60;99.90
60309;DHT22;50313;52.894;6.492;2023-06-19T07:13:55;20.60;99.90
60309;DHT22;50313;52.894;6.492;2023-06-19T07:17:08;20.80;99.90
60309;DHT22;50313;52.894;6.492;2023-06-19T07:19:42;20.70;99.90
60309;DHT22;50313;52.894;6.492;2023-06-19T07:22:16;20.70;99.90
60309;DHT22;50313;52.894;6.492;2023-06-19T07:24:42;20.70;99.90
60309;DHT22;50313;52.894;6.492;2023-06-19T07:27:32;20.60;99.90
60309;DHT22;50313;52.894;6.492;2023-06-19T07:30:06;20.60;99.90
60309;DHT22;50313;52.894;6.492;2023-06-19T07:32:54;20.50;99.90
60309;DHT22;50313;52.894;6.492;2023-06-19T07:35:36;20.50;99.90
60309;DHT22;50313;52.894;6.492;2023-06-19T07:38:27;20.50;99.90
60309;DHT22;50313;52.894;6.492;2023-06-19T07:41:07;20.40;99.90
60309;DHT22;50313;52.894;6.492;2023-06-19T07:44:04;20.30;99.90
60309;DHT22;50313;52.894;6.492;2023-06-19T07:46:52;20.40;99.90
60309;DHT22;50313;52.894;6.492;2023-06-19T07:53:18;20.30;99.90
60309;DHT22;50313;52.894;6.492;2023-06-19T08:09:46;20.60;99.90
60309;DHT22;50313;52.894;6.492;2023-06-19T08:20:57;20.80;99.90
60309;DHT22;50313;52.894;6.492;2023-06-19T08:23:27;20.70;99.90
60309;DHT22;50313;52.894;6.492;2023-06-19T08:34:02;20.80;99.90
60309;DHT22;50313;52.894;6.492;2023-06-19T08:36:56;20.70;99.90
60309;DHT22;50313;52.894;6.492;2023-06-19T08:39:48;20.60;99.90
60309;DHT22;50313;52.894;6.492;2023-06-19T08:46:21;20.80;99.90
60309;DHT22;50313;52.894;6.492;2023-06-19T08:49:21;20.80;99.90
60309;DHT22;50313;52.894;6.492;2023-06-19T08:52:31;20.80;99.90
60309;DHT22;50313;52.894;6.492;2023-06-19T08:55:19;20.80;99.90
60309;DHT22;50313;52.894;6.492;2023-06-19T08:58:49;20.80;99.90
60309;DHT22;50313;52.894;6.492;2023-06-19T09:01:47;21.10;99.90
60309;DHT22;50313;52.894;6.492;2023-06-19T09:11:21;21.50;99.90
60309;DHT22;50313;52.894;6.492;2023-06-19T09:24:32;21.50;99.90
60309;DHT22;50313;52.894;6.492;2023-06-19T09:27:50;21.50;99.90
60309;DHT22;50313;52.894;6.492;2023-06-19T09:44:10;21.30;99.90
60309;DHT22;50313;52.894;6.492;2023-06-19T09:50:06;21.60;99.90
60309;DHT22;50313;52.894;6.492;2023-06-19T09:59:18;21.70;99.90
60309;DHT22;50313;52.894;6.492;2023-06-19T10:02:30;21.70;99.50
60309;DHT22;50313;52.894;6.492;2023-06-19T10:05:11;21.50;99.30
60309;DHT22;50313;52.894;6.492;2023-06-19T10:08:02;21.40;99.90
60309;DHT22;50313;52.894;6.492;2023-06-19T10:10:58;21.40;99.90
60309;DHT22;50313;52.894;6.492;2023-06-19T10:17:07;21.30;99.90
60309;DHT22;50313;52.894;6.492;2023-06-19T10:26:00;21.50;99.90
60309;DHT22;50313;52.894;6.492;2023-06-19T10:29:06;22.00;99.90
60309;DHT22;50313;52.894;6.492;2023-06-19T10:32:25;22.50;99.90
60309;DHT22;50313;52.894;6.492;2023-06-19T10:35:18;22.80;97.80
60309;DHT22;50313;52.894;6.492;2023-06-19T10:37:56;23.20;96.60
60309;DHT22;50313;52.894;6.492;2023-06-19T10:50:55;22.40;97.00
60309;DHT22;50313;52.894;6.492;2023-06-19T10:54:08;22.50;97.30
60309;DHT22;50313;52.894;6.492;2023-06-19T11:00:05;22.20;97.30
60309;DHT22;50313;52.894;6.492;2023-06-19T11:06:24;22.60;96.80
60309;DHT22;50313;52.894;6.492;2023-06-19T11:09:12;22.60;96.60
60309;DHT22;50313;52.894;6.492;2023-06-19T11:11:48;22.60;96.80
60309;DHT22;50313;52.894;6.492;2023-06-19T11:14:37;22.70;96.80
60309;DHT22;50313;52.894;6.492;2023-06-19T11:17:17;23.10;96.50
60309;DHT22;50313;52.894;6.492;2023-06-19T11:20:20;23.40;95.60
60309;DHT22;50313;52.894;6.492;2023-06-19T11:23:15;23.80;95.10
60309;DHT22;50313;52.894;6.492;2023-06-19T11:25:54;24.00;92.90
60309;DHT22;50313;52.894;6.492;2023-06-19T11:28:27;24.00;91.30
60309;DHT22;50313;52.894;6.492;2023-06-19T11:34:13;23.70;91.10
60309;DHT22;50313;52.894;6.492;2023-06-19T11:36:51;23.60;91.70
60309;DHT22;50313;52.894;6.492;2023-06-19T11:39:33;24.00;91.40
60309;DHT22;50313;52.894;6.492;2023-06-19T11:42:13;24.60;91.70
60309;DHT22;50313;52.894;6.492;2023-06-19T11:44:57;24.40;91.40
60309;DHT22;50313;52.894;6.492;2023-06-19T11:47:42;24.10;91.90
60309;DHT22;50313;52.894;6.492;2023-06-19T11:50:28;24.30;91.10
60309;DHT22;50313;52.894;6.492;2023-06-19T11:53:08;23.90;91.60
60309;DHT22;50313;52.894;6.492;2023-06-19T11:55:45;23.90;91.10
60309;DHT22;50313;52.894;6.492;2023-06-19T11:58:39;23.50;91.90
60309;DHT22;50313;52.894;6.492;2023-06-19T12:10:32;23.70;92.00
60309;DHT22;50313;52.894;6.492;2023-06-19T12:13:34;23.80;91.10
60309;DHT22;50313;52.894;6.492;2023-06-19T12:16:05;23.60;91.30
60309;DHT22;50313;52.894;6.492;2023-06-19T12:18:45;23.70;91.20
60309;DHT22;50313;52.894;6.492;2023-06-19T12:21:27;24.10;91.50
60309;DHT22;50313;52.894;6.492;2023-06-19T12:24:23;24.00;90.20
60309;DHT22;50313;52.894;6.492;2023-06-19T12:33:22;23.80;90.80
60309;DHT22;50313;52.894;6.492;2023-06-19T12:36:20;24.00;90.60
60309;DHT22;50313;52.894;6.492;2023-06-19T12:39:04;23.90;90.00
60309;DHT22;50313;52.894;6.492;2023-06-19T12:41:43;24.20;90.30
60309;DHT22;50313;52.894;6.492;2023-06-19T12:44:33;24.20;88.30
60309;DHT22;50313;52.894;6.492;2023-06-19T12:47:10;24.40;90.00
60309;DHT22;50313;52.894;6.492;2023-06-19T12:49:58;24.80;86.50
60309;DHT22;50313;52.894;6.492;2023-06-19T12:52:52;25.00;86.10
60309;DHT22;50313;52.894;6.492;2023-06-19T12:55:43;24.60;86.30
60309;DHT22;50313;52.894;6.492;2023-06-19T12:58:51;24.90;88.30
60309;DHT22;50313;52.894;6.492;2023-06-19T13:01:21;24.80;86.90
60309;DHT22;50313;52.894;6.492;2023-06-19T13:07:13;25.10;86.60
60309;DHT22;50313;52.894;6.492;2023-06-19T13:10:02;25.20;85.70
60309;DHT22;50313;52.894;6.492;2023-06-19T13:12:51;25.40;84.20
60309;DHT22;50313;52.894;6.492;2023-06-19T13:15:46;25.40;83.30
60309;DHT22;50313;52.894;6.492;2023-06-19T13:24:08;25.80;81.70
60309;DHT22;50313;52.894;6.492;2023-06-19T13:27:25;25.50;79.70
60309;DHT22;50313;52.894;6.492;2023-06-19T13:30:14;26.20;81.00
60309;DHT22;50313;52.894;6.492;2023-06-19T13:33:08;25.80;75.40
60309;DHT22;50313;52.894;6.492;2023-06-19T13:35:42;25.80;76.40
60309;DHT22;50313;52.894;6.492;2023-06-19T13:38:17;25.90;76.80
60309;DHT22;50313;52.894;6.492;2023-06-19T13:44:50;26.30;74.50
60309;DHT22;50313;52.894;6.492;2023-06-19T13:47:44;26.60;71.90
60309;DHT22;50313;52.894;6.492;2023-06-19T13:50:25;26.90;71.40
60309;DHT22;50313;52.894;6.492;2023-06-19T13:53:05;26.90;70.80
60309;DHT22;50313;52.894;6.492;2023-06-19T13:56:02;27.30;71.00
60309;DHT22;50313;52.894;6.492;2023-06-19T13:58:53;27.70;69.40
60309;DHT22;50313;52.894;6.492;2023-06-19T14:01:49;27.50;68.40
60309;DHT22;50313;52.894;6.492;2023-06-19T14:04:46;27.50;69.00
60309;DHT22;50313;52.894;6.492;2023-06-19T14:07:40;27.60;66.90
60309;DHT22;50313;52.894;6.492;2023-06-19T14:10:17;27.40;68.70
60309;DHT22;50313;52.894;6.492;2023-06-19T14:15:58;27.70;66.50
60309;DHT22;50313;52.894;6.492;2023-06-19T14:21:55;27.60;65.90
60309;DHT22;50313;52.894;6.492;2023-06-19T14:24:41;27.60;66.40
60309;DHT22;50313;52.894;6.492;2023-06-19T14:27:41;27.20;67.50
60309;DHT22;50313;52.894;6.492;2023-06-19T14:30:12;27.40;67.50
60309;DHT22;50313;52.894;6.492;2023-06-19T14:33:00;27.70;66.50
60309;DHT22;50313;52.894;6.492;2023-06-19T14:35:32;28.00;64.20
60309;DHT22;50313;52.894;6.492;2023-06-19T14:38:41;28.40;63.50
60309;DHT22;50313;52.894;6.492;2023-06-19T14:41:11;28.70;63.90
60309;DHT22;50313;52.894;6.492;2023-06-19T14:44:16;28.60;62.20
60309;DHT22;50313;52.894;6.492;2023-06-19T14:46:57;28.80;61.90
60309;DHT22;50313;52.894;6.492;2023-06-19T14:49:41;29.10;60.60
60309;DHT22;50313;52.894;6.492;2023-06-19T14:52:12;28.70;60.20
60309;DHT22;50313;52.894;6.492;2023-06-19T14:55:03;28.40;59.50
60309;DHT22;50313;52.894;6.492;2023-06-19T14:57:46;28.70;58.20
60309;DHT22;50313;52.894;6.492;2023-06-19T15:00:33;28.90;57.90
60309;DHT22;50313;52.894;6.492;2023-06-19T15:03:09;29.10;58.90
60309;DHT22;50313;52.894;6.492;2023-06-19T15:06:05;29.90;58.80
60309;DHT22;50313;52.894;6.492;2023-06-19T15:08:48;30.00;58.00
60309;DHT22;50313;52.894;6.492;2023-06-19T15:11:30;29.70;55.70
60309;DHT22;50313;52.894;6.492;2023-06-19T15:14:30;29.50;55.90
60309;DHT22;50313;52.894;6.492;2023-06-19T15:20:37;30.60;56.30
60309;DHT22;50313;52.894;6.492;2023-06-19T15:23:38;30.60;53.90
60309;DHT22;50313;52.894;6.492;2023-06-19T15:26:41;30.20;53.40
60309;DHT22;50313;52.894;6.492;2023-06-19T15:29:23;30.60;54.50
60309;DHT22;50313;52.894;6.492;2023-06-19T15:32:20;30.60;53.40
60309;DHT22;50313;52.894;6.492;2023-06-19T15:35:28;30.30;52.60
60309;DHT22;50313;52.894;6.492;2023-06-19T15:38:08;31.00;51.60
60309;DHT22;50313;52.894;6.492;2023-06-19T15:41:43;30.80;51.70
60309;DHT22;50313;52.894;6.492;2023-06-19T15:45:01;31.40;52.50
60309;DHT22;50313;52.894;6.492;2023-06-19T15:51:49;30.60;48.90
60309;DHT22;50313;52.894;6.492;2023-06-19T15:55:16;30.90;48.90
60309;DHT22;50313;52.894;6.492;2023-06-19T16:05:55;32.00;49.40
60309;DHT22;50313;52.894;6.492;2023-06-19T16:09:04;31.90;48.80
60309;DHT22;50313;52.894;6.492;2023-06-19T16:12:10;31.70;48.90
60309;DHT22;50313;52.894;6.492;2023-06-19T16:14:57;31.90;49.10
60309;DHT22;50313;52.894;6.492;2023-06-19T16:17:48;31.50;48.70
60309;DHT22;50313;52.894;6.492;2023-06-19T16:31:57;31.90;49.30
60309;DHT22;50313;52.894;6.492;2023-06-19T16:35:12;32.20;48.10
60309;DHT22;50313;52.894;6.492;2023-06-19T16:38:36;32.10;46.90
60309;DHT22;50313;52.894;6.492;2023-06-19T16:41:48;31.60;46.90
60309;DHT22;50313;52.894;6.492;2023-06-19T16:44:44;32.00;46.20
60309;DHT22;50313;52.894;6.492;2023-06-19T16:47:47;31.60;47.20
60309;DHT22;50313;52.894;6.492;2023-06-19T16:51:08;31.60;47.50
60309;DHT22;50313;52.894;6.492;2023-06-19T16:54:27;31.80;48.70
60309;DHT22;50313;52.894;6.492;2023-06-19T16:57:49;31.20;48.20
60309;DHT22;50313;52.894;6.492;2023-06-19T17:03:58;31.20;49.30
60309;DHT22;50313;52.894;6.492;2023-06-19T17:06:47;30.80;49.40
60309;DHT22;50313;52.894;6.492;2023-06-19T17:09:58;31.50;48.60
60309;DHT22;50313;52.894;6.492;2023-06-19T17:13:04;31.90;48.30
60309;DHT22;50313;52.894;6.492;2023-06-19T17:22:39;31.30;48.70
60309;DHT22;50313;52.894;6.492;2023-06-19T17:28:38;31.10;49.40
60309;DHT22;50313;52.894;6.492;2023-06-19T17:32:01;30.90;48.40
60309;DHT22;50313;52.894;6.492;2023-06-19T17:37:27;28.90;51.10
60309;DHT22;50313;52.894;6.492;2023-06-19T17:40:42;27.90;53.40
60309;DHT22;50313;52.894;6.492;2023-06-19T17:44:11;27.60;53.80
60309;DHT22;50313;52.894;6.492;2023-06-19T17:47:07;27.40;56.00
60309;DHT22;50313;52.894;6.492;2023-06-19T17:50:09;27.10;56.70
60309;DHT22;50313;52.894;6.492;2023-06-19T17:52:52;26.60;55.50
60309;DHT22;50313;52.894;6.492;2023-06-19T17:55:38;26.20;58.00
60309;DHT22;50313;52.894;6.492;2023-06-19T17:58:27;25.90;59.70
60309;DHT22;50313;52.894;6.492;2023-06-19T18:01:07;25.80;60.60
60309;DHT22;50313;52.894;6.492;2023-06-19T18:07:31;25.60;60.50
60309;DHT22;50313;52.894;6.492;2023-06-19T18:10:13;25.20;60.60
60309;DHT22;50313;52.894;6.492;2023-06-19T18:13:03;25.10;60.90
60309;DHT22;50313;52.894;6.492;2023-06-19T18:18:43;24.40;61.40
60309;DHT22;50313;52.894;6.492;2023-06-19T18:24:36;24.20;62.80
60309;DHT22;50313;52.894;6.492;2023-06-19T18:30:53;23.90;62.70
60309;DHT22;50313;52.894;6.492;2023-06-19T18:33:36;23.70;64.90
60309;DHT22;50313;52.894;6.492;2023-06-19T18:36:18;23.70;64.80
60309;DHT22;50313;52.894;6.492;2023-06-19T18:39:12;23.50;65.50
60309;DHT22;50313;52.894;6.492;2023-06-19T18:41:49;23.40;66.00
60309;DHT22;50313;52.894;6.492;2023-06-19T18:44:33;23.30;66.30
60309;DHT22;50313;52.894;6.492;2023-06-19T18:47:06;23.10;67.40
60309;DHT22;50313;52.894;6.492;2023-06-19T18:49:40;23.00;67.70
60309;DHT22;50313;52.894;6.492;2023-06-19T18:52:34;22.90;68.20
60309;DHT22;50313;52.894;6.492;2023-06-19T18:55:07;22.70;69.30
60309;DHT22;50313;52.894;6.492;2023-06-19T18:57:39;22.70;70.00
60309;DHT22;50313;52.894;6.492;2023-06-19T19:00:21;22.60;70.00
60309;DHT22;50313;52.894;6.492;2023-06-19T19:03:03;22.60;71.10
60309;DHT22;50313;52.894;6.492;2023-06-19T19:06:08;22.60;71.70
60309;DHT22;50313;52.894;6.492;2023-06-19T19:08:46;22.40;73.10
60309;DHT22;50313;52.894;6.492;2023-06-19T19:11:34;22.30;73.90
60309;DHT22;50313;52.894;6.492;2023-06-19T19:14:23;22.30;74.80
60309;DHT22;50313;52.894;6.492;2023-06-19T19:17:14;22.10;76.30
60309;DHT22;50313;52.894;6.492;2023-06-19T19:19:58;22.00;77.20
60309;DHT22;50313;52.894;6.492;2023-06-19T19:22:30;22.00;77.70
60309;DHT22;50313;52.894;6.492;2023-06-19T19:25:01;21.80;79.20
60309;DHT22;50313;52.894;6.492;2023-06-19T19:31:01;21.60;80.90
60309;DHT22;50313;52.894;6.492;2023-06-19T19:33:37;21.40;82.10
60309;DHT22;50313;52.894;6.492;2023-06-19T19:36:11;21.30;83.30
60309;DHT22;50313;52.894;6.492;2023-06-19T19:39:01;21.20;84.80
60309;DHT22;50313;52.894;6.492;2023-06-19T19:42:35;21.10;86.00
60309;DHT22;50313;52.894;6.492;2023-06-19T19:48:44;20.70;89.20
60309;DHT22;50313;52.894;6.492;2023-06-19T19:54:49;20.60;91.10
60309;DHT22;50313;52.894;6.492;2023-06-19T20:01:16;20.40;92.00
60309;DHT22;50313;52.894;6.492;2023-06-19T20:04:19;20.30;92.40
60309;DHT22;50313;52.894;6.492;2023-06-19T20:10:23;20.00;93.30
60309;DHT22;50313;52.894;6.492;2023-06-19T20:16:58;19.80;94.90
60309;DHT22;50313;52.894;6.492;2023-06-19T20:28:59;19.30;99.00
60309;DHT22;50313;52.894;6.492;2023-06-19T20:31:49;19.20;99.20
60309;DHT22;50313;52.894;6.492;2023-06-19T20:34:26;19.20;99.50
60309;DHT22;50313;52.894;6.492;2023-06-19T20:37:00;19.10;99.90
60309;DHT22;50313;52.894;6.492;2023-06-19T20:39:44;19.00;99.90
60309;DHT22;50313;52.894;6.492;2023-06-19T20:42:49;18.90;99.90
60309;DHT22;50313;52.894;6.492;2023-06-19T20:45:43;18.80;99.90
60309;DHT22;50313;52.894;6.492;2023-06-19T20:48:41;18.70;99.90
60309;DHT22;50313;52.894;6.492;2023-06-19T20:51:34;18.60;99.90
60309;DHT22;50313;52.894;6.492;2023-06-19T20:54:38;18.40;99.90
60309;DHT22;50313;52.894;6.492;2023-06-19T20:57:19;18.30;99.90
60309;DHT22;50313;52.894;6.492;2023-06-19T21:00:12;18.20;99.90
60309;DHT22;50313;52.894;6.492;2023-06-19T21:03:04;18.10;99.90
60309;DHT22;50313;52.894;6.492;2023-06-19T21:05:54;18.00;99.90
60309;DHT22;50313;52.894;6.492;2023-06-19T21:08:28;18.00;99.90
60309;DHT22;50313;52.894;6.492;2023-06-19T21:14:32;17.80;99.90
60309;DHT22;50313;52.894;6.492;2023-06-19T21:20:15;17.80;99.90
60309;DHT22;50313;52.894;6.492;2023-06-19T21:23:02;17.70;99.90
60309;DHT22;50313;52.894;6.492;2023-06-19T21:25:51;17.80;99.90
60309;DHT22;50313;52.894;6.492;2023-06-19T21:28:55;17.70;99.90
60309;DHT22;50313;52.894;6.492;2023-06-19T21:31:23;17.70;99.90
60309;DHT22;50313;52.894;6.492;2023-06-19T21:34:14;17.70;99.90
60309;DHT22;50313;52.894;6.492;2023-06-19T21:37:00;17.60;99.90
60309;DHT22;50313;52.894;6.492;2023-06-19T21:39:34;17.60;99.90
60309;DHT22;50313;52.894;6.492;2023-06-19T21:42:02;17.60;99.90
60309;DHT22;50313;52.894;6.492;2023-06-19T21:44:42;17.60;99.90
60309;DHT22;50313;52.894;6.492;2023-06-19T21:47:27;17.60;99.90
60309;DHT22;50313;52.894;6.492;2023-06-19T21:50:09;17.50;99.90
60309;DHT22;50313;52.894;6.492;2023-06-19T21:52:40;17.40;99.90
60309;DHT22;50313;52.894;6.492;2023-06-19T21:55:08;17.40;99.90
60309;DHT22;50313;52.894;6.492;2023-06-19T21:57:37;17.50;99.90
60309;DHT22;50313;52.894;6.492;2023-06-19T22:00:13;17.50;99.90
60309;DHT22;50313;52.894;6.492;2023-06-19T22:02:49;17.40;99.90
60309;DHT22;50313;52.894;6.492;2023-06-19T22:05:41;17.40;99.90
60309;DHT22;50313;52.894;6.492;2023-06-19T22:08:29;17.30;99.90
60309;DHT22;50313;52.894;6.492;2023-06-19T22:11:38;17.30;99.90
60309;DHT22;50313;52.894;6.492;2023-06-19T22:14:29;17.30;99.90
60309;DHT22;50313;52.894;6.492;2023-06-19T22:16:58;17.30;99.90
60309;DHT22;50313;52.894;6.492;2023-06-19T22:20:20;17.30;99.90
60309;DHT22;50313;52.894;6.492;2023-06-19T22:22:51;17.40;99.90
60309;DHT22;50313;52.894;6.492;2023-06-19T22:28:27;17.50;99.90
60309;DHT22;50313;52.894;6.492;2023-06-19T22:31:09;17.50;99.90
60309;DHT22;50313;52.894;6.492;2023-06-19T22:36:42;17.60;99.90
60309;DHT22;50313;52.894;6.492;2023-06-19T22:39:11;17.60;99.90
60309;DHT22;50313;52.894;6.492;2023-06-19T22:41:40;17.60;99.90
60309;DHT22;50313;52.894;6.492;2023-06-19T22:44:30;17.60;99.90
60309;DHT22;50313;52.894;6.492;2023-06-19T22:46:59;17.60;99.90
60309;DHT22;50313;52.894;6.492;2023-06-19T22:49:40;17.50;99.90
60309;DHT22;50313;52.894;6.492;2023-06-19T22:52:26;17.60;99.90
60309;DHT22;50313;52.894;6.492;2023-06-19T22:55:06;17.60;99.90
60309;DHT22;50313;52.894;6.492;2023-06-19T22:57:41;17.60;99.90
60309;DHT22;50313;52.894;6.492;2023-06-19T23:00:16;17.60;99.90
60309;DHT22;50313;52.894;6.492;2023-06-19T23:02:47;17.60;99.90
60309;DHT22;50313;52.894;6.492;2023-06-19T23:05:19;17.60;99.90
60309;DHT22;50313;52.894;6.492;2023-06-19T23:07:45;17.60;99.90
60309;DHT22;50313;52.894;6.492;2023-06-19T23:10:23;17.60;99.90
60309;DHT22;50313;52.894;6.492;2023-06-19T23:12:51;17.60;99.90
60309;DHT22;50313;52.894;6.492;2023-06-19T23:15:22;17.60;99.90
60309;DHT22;50313;52.894;6.492;2023-06-19T23:17:51;17.60;99.90
60309;DHT22;50313;52.894;6.492;2023-06-19T23:20:27;17.50;99.90
60309;DHT22;50313;52.894;6.492;2023-06-19T23:22:55;17.60;99.90
60309;DHT22;50313;52.894;6.492;2023-06-19T23:25:33;17.60;99.90
60309;DHT22;50313;52.894;6.492;2023-06-19T23:28:10;17.60;99.90
60309;DHT22;50313;52.894;6.492;2023-06-19T23:30:39;17.60;99.90
60309;DHT22;50313;52.894;6.492;2023-06-19T23:33:07;17.60;99.90
60309;DHT22;50313;52.894;6.492;2023-06-19T23:35:33;17.60;99.90
60309;DHT22;50313;52.894;6.492;2023-06-19T23:38:04;17.60;99.90
60309;DHT22;50313;52.894;6.492;2023-06-19T23:40:30;17.60;99.90
60309;DHT22;50313;52.894;6.492;2023-06-19T23:45:57;17.50;99.90
60309;DHT22;50313;52.894;6.492;2023-06-19T23:48:25;17.60;99.90
60309;DHT22;50313;52.894;6.492;2023-06-19T23:51:22;17.60;99.90
60309;DHT22;50313;52.894;6.492;2023-06-19T23:53:50;17.50;99.90
60309;DHT22;50313;52.894;6.492;2023-06-19T23:56:22;17.50;99.90
60309;DHT22;50313;52.894;6.492;2023-06-19T23:58:52;17.50;99.90
